x

Destruction Island, Wa (desw1) Weather Station

4:00am - Sat 22nd Jul 2017 All times are PDT. -7 hours from GMT.

  • Wind
    17mph, 18mph gusts
  • Air Temp 57°f
  • Sea Pressure 1020.9mb
  • Destruction Island, Wa
  • Destruction Island, Wa

More Historic Weather Station data

Upgrade to MSW Pro to gain access to the past 30 days of data for over 8000 Wavebouys and Weather Stations around the globe.

Join Pro

Comparision Forecast

View Surf forecast
   
Sat 07/22 4:00am 17 18 mph 1020.9mb 57f
3:00am 20 22 mph 1020.9mb 58f
2:00am 16 17 mph 1020.9mb 57f
1:00am 21 22 mph 1020.9mb 58f
12:00am 20 21 mph 1021mb 57f
Fri 07/21 11:00pm 15 16 mph 1021mb 57f
10:00pm 8 8 mph 1021.2mb 57f
9:00pm 13 15 mph 1020.8mb 57f
8:00pm 16 17 mph 1020.8mb 57f
7:00pm 15 16 mph 1020.8mb 58f
6:00pm 11 11 mph 1021.1mb 58f
5:00pm 10 11 mph 1021.5mb 58f
4:00pm 9 9 mph 1021.8mb 57f
3:00pm 15 15 mph 1022mb 57f
2:00pm 17 17 mph 1021.9mb 57f
1:00pm 20 21 mph 1021.5mb 57f
12:00pm 14 15 mph 1021.6mb 57f
11:00am 11 11 mph 1021.6mb 56f
10:00am 10 11 mph 1021.5mb 55f
9:00am 9 10 mph 1020.9mb 55f
8:00am 5 5 mph 1020.7mb 55f
7:00am 3 5 mph 1020.5mb 54f
6:00am  -  1 mph 1020.4mb 54f
5:00am  -  0 mph 1020mb 55f
4:00am 6 6 mph 1020mb 55f
3:00am 7 8 mph 1020.5mb 55f
2:00am 7 7 mph 1020.7mb 55f
1:00am 3 3 mph 1020.8mb 55f
12:00am  -  1 mph 1020.9mb 56f
Thu 07/20 11:00pm 1 1 mph 1020.9mb 58f
10:00pm  -  0 mph 1021mb 58f
9:00pm  -  0 mph 1020.9mb 58f
8:00pm 1 2 mph 1021.1mb 59f
7:00pm 2 2 mph 1021.3mb 59f
6:00pm 3 5 mph 1021.5mb 59f
5:00pm 5 6 mph 1021.8mb 59f
4:00pm 7 8 mph 1021.9mb 60f
3:00pm 6 7 mph 1022mb 60f
2:00pm 9 10 mph 1022mb 57f
1:00pm 16 17 mph 1021.7mb 58f
12:00pm 14 15 mph 1021.4mb 58f
11:00am 16 16 mph 1020.7mb 56f
10:00am 13 14 mph 1020.2mb 56f
9:00am 9 10 mph 1019.9mb 55f
8:00am 10 10 mph 1019.5mb 55f
7:00am 10 11 mph 1019.2mb 55f
6:00am 13 14 mph 1018.8mb 55f
5:00am 14 15 mph 1018.3mb 56f
4:00am 15 16 mph 1017.8mb 56f
3:00am 17 18 mph 1017.6mb 56f
2:00am 17 17 mph 1017.7mb 57f
1:00am 15 16 mph 1017.6mb 58f
12:00am 13 14 mph 1017.7mb 58f
Wed 07/19 11:00pm 11 11 mph 1017.8mb 57f
10:00pm 9 10 mph 1018mb 57f
9:00pm 7 8 mph 1017.9mb 58f
8:00pm 6 6 mph 1017.9mb 59f
7:00pm 6 6 mph 1018.1mb 59f
6:00pm 2 3 mph 1018.4mb 60f
5:00pm 5 5 mph 1018.7mb 60f
4:00pm 7 7 mph 1019.2mb 60f
3:00pm 13 13 mph 1019.3mb 59f
2:00pm 15 15 mph 1019.5mb 59f
1:00pm 13 13 mph 1019.8mb 57f
12:00pm 8 9 mph 1019.8mb 62f
11:00am 9 9 mph 1019.9mb 60f
10:00am 5 6 mph 1020.1mb 59f
9:00am 6 6 mph 1020.3mb 58f
8:00am 8 8 mph 1020.3mb 55f
7:00am 6 7 mph 1020.3mb 54f
6:00am 7 7 mph 1020mb 53f
5:00am 8 8 mph 1019.8mb 53f
4:00am 8 8 mph 1019.4mb 53f
3:00am 7 7 mph 1019.4mb 54f
2:00am 5 6 mph 1019.5mb 55f
1:00am 6 6 mph 1019.6mb 56f
12:00am 6 6 mph 1019.6mb 56f
Tue 07/18 11:00pm 7 7 mph 1019.5mb 55f
10:00pm 9 9 mph 1019.2mb 56f
9:00pm 9 9 mph 1018.8mb 56f
8:00pm 9 10 mph 1018.8mb 57f
7:00pm 10 10 mph 1018.6mb 57f
6:00pm 11 11 mph 1018.7mb 58f
5:00pm 11 11 mph 1018.7mb 60f
4:00pm 8 9 mph 1018.5mb 58f
3:00pm 8 8 mph 1018.5mb 57f
2:00pm 9 10 mph 1018.5mb 60f
1:00pm 6 7 mph 1018.5mb 57f